createdAt,value
2018-03-31T00:00:29.234Z,4.16
2018-03-31T00:01:29.131Z,4.17
2018-03-31T00:02:29.027Z,4.16
2018-03-31T00:03:28.929Z,4.10
2018-03-31T00:04:28.821Z,4.12
2018-03-31T00:05:28.706Z,4.10
2018-03-31T00:06:28.603Z,4.12
2018-03-31T00:07:28.498Z,4.04
2018-03-31T00:08:28.394Z,4.12
2018-03-31T00:09:28.291Z,3.94
2018-03-31T00:10:28.187Z,3.95
2018-03-31T00:11:28.084Z,3.94
2018-03-31T00:12:27.969Z,3.94
2018-03-31T00:13:27.867Z,3.99
2018-03-31T00:14:27.762Z,3.99
2018-03-31T00:15:27.660Z,3.99
2018-03-31T00:16:27.556Z,4.01
2018-03-31T00:17:27.453Z,3.92
2018-03-31T00:18:27.338Z,3.86
2018-03-31T00:19:27.233Z,3.96
2018-03-31T00:20:27.130Z,3.95
2018-03-31T00:21:27.026Z,3.83
2018-03-31T00:22:27.173Z,3.98
2018-03-31T00:23:26.819Z,3.94
2018-03-31T00:24:26.717Z,3.94
2018-03-31T00:25:26.602Z,3.98
2018-03-31T00:26:26.497Z,3.94
2018-03-31T00:27:26.395Z,3.96
2018-03-31T00:28:26.294Z,3.91
2018-03-31T00:29:26.205Z,3.87
2018-03-31T00:30:26.089Z,3.88
2018-03-31T00:31:25.969Z,3.98
2018-03-31T00:32:25.864Z,3.83
2018-03-31T00:33:25.762Z,3.94
2018-03-31T00:34:25.658Z,3.81
2018-03-31T00:35:25.555Z,3.87
2018-03-31T00:36:25.451Z,3.83
2018-03-31T00:37:25.362Z,3.77
2018-03-31T00:38:25.233Z,3.83
2018-03-31T00:39:25.130Z,3.81
2018-03-31T00:40:25.026Z,3.83
2018-03-31T00:41:24.923Z,3.86
2018-03-31T00:42:24.821Z,3.88
2018-03-31T00:43:24.716Z,3.80
2018-03-31T00:44:24.600Z,3.87
2018-03-31T00:45:24.496Z,3.78
2018-03-31T00:46:24.393Z,3.78
2018-03-31T00:47:24.291Z,3.84
2018-03-31T00:48:24.189Z,3.84
2018-03-31T00:49:24.083Z,3.80
2018-03-31T00:50:23.968Z,3.76
2018-03-31T00:51:23.865Z,3.81
2018-03-31T00:52:23.762Z,3.77
2018-03-31T00:53:23.658Z,3.68
2018-03-31T00:54:23.554Z,3.80
2018-03-31T00:55:23.451Z,3.73
2018-03-31T00:56:23.336Z,3.80
2018-03-31T00:57:23.232Z,3.74
2018-03-31T00:58:23.133Z,3.65
2018-03-31T00:59:23.025Z,3.78
2018-03-31T01:00:22.921Z,3.83
2018-03-31T01:01:22.820Z,3.78
2018-03-31T01:02:22.705Z,3.74
2018-03-31T01:03:22.602Z,3.73
2018-03-31T01:04:22.496Z,3.78
2018-03-31T01:05:22.394Z,3.69
2018-03-31T01:06:22.290Z,3.69
2018-03-31T01:07:22.187Z,3.60
2018-03-31T01:08:22.083Z,3.68
2018-03-31T01:09:21.967Z,3.66
2018-03-31T01:10:21.863Z,3.65
2018-03-31T01:11:21.761Z,3.70
2018-03-31T01:12:21.657Z,3.66
2018-03-31T01:13:21.555Z,3.59
2018-03-31T01:14:21.438Z,3.56
2018-03-31T01:15:21.335Z,3.56
2018-03-31T01:16:21.232Z,3.51
2018-03-31T01:17:21.129Z,3.56
2018-03-31T01:18:21.024Z,3.59
2018-03-31T01:19:20.910Z,3.58
2018-03-31T01:20:20.806Z,3.55
2018-03-31T01:21:20.702Z,3.58
2018-03-31T01:22:20.602Z,3.56
2018-03-31T01:23:20.496Z,3.53
2018-03-31T01:24:20.393Z,3.41
2018-03-31T01:25:20.277Z,3.44
2018-03-31T01:26:20.175Z,3.47
2018-03-31T01:27:20.071Z,3.45
2018-03-31T01:28:19.971Z,3.45
2018-03-31T01:29:19.864Z,3.44
2018-03-31T01:30:19.750Z,3.47
2018-03-31T01:31:19.644Z,3.41
2018-03-31T01:32:19.540Z,3.45
2018-03-31T01:33:19.437Z,3.37
2018-03-31T01:34:19.333Z,3.40
2018-03-31T01:35:19.237Z,3.40
2018-03-31T01:36:19.115Z,3.34
2018-03-31T01:37:19.013Z,3.29
2018-03-31T01:38:18.910Z,3.37
2018-03-31T01:39:18.804Z,3.23
2018-03-31T01:40:18.703Z,3.32
2018-03-31T01:41:18.598Z,3.55
2018-03-31T01:42:18.484Z,3.36
2018-03-31T01:43:18.384Z,3.45
2018-03-31T01:44:18.276Z,3.42
2018-03-31T01:45:18.173Z,3.36
2018-03-31T01:46:18.070Z,3.37
2018-03-31T01:47:17.955Z,3.40
2018-03-31T01:48:17.852Z,3.29
2018-03-31T01:49:17.749Z,3.31
2018-03-31T01:50:17.644Z,3.32
2018-03-31T01:51:17.541Z,3.29
2018-03-31T01:52:17.426Z,3.23
2018-03-31T01:53:17.336Z,3.25
2018-03-31T01:54:17.231Z,3.19
2018-03-31T01:55:17.114Z,3.19
2018-03-31T01:56:17.011Z,3.19
2018-03-31T01:57:16.898Z,3.29
2018-03-31T01:58:16.792Z,3.23
2018-03-31T01:59:16.689Z,3.19
2018-03-31T02:00:16.588Z,3.23
2018-03-31T02:01:16.483Z,3.23
2018-03-31T02:02:16.367Z,3.14
2018-03-31T02:03:16.263Z,3.08
2018-03-31T02:04:16.160Z,3.08
2018-03-31T02:05:16.057Z,3.08
2018-03-31T02:06:15.953Z,3.08
2018-03-31T02:07:15.842Z,3.08
2018-03-31T02:08:15.737Z,3.10
2018-03-31T02:09:15.632Z,3.08
2018-03-31T02:10:15.529Z,3.16
2018-03-31T02:11:15.425Z,3.13
2018-03-31T02:12:15.322Z,3.07
2018-03-31T02:13:15.204Z,3.14
2018-03-31T02:14:15.102Z,3.10
2018-03-31T02:15:14.998Z,3.05
2018-03-31T02:16:14.894Z,3.04
2018-03-31T02:17:14.810Z,2.98
2018-03-31T02:18:14.676Z,3.07
2018-03-31T02:19:14.573Z,3.13
2018-03-31T02:20:14.470Z,3.05
2018-03-31T02:21:14.368Z,3.05
2018-03-31T02:22:14.263Z,3.08
2018-03-31T02:23:14.159Z,2.95
2018-03-31T02:24:14.044Z,2.93
2018-03-31T02:25:13.941Z,2.93
2018-03-31T02:26:13.826Z,2.95
2018-03-31T02:27:13.723Z,2.95
2018-03-31T02:28:13.618Z,2.93
2018-03-31T02:29:13.515Z,2.95
2018-03-31T02:30:13.416Z,2.89
2018-03-31T02:31:13.296Z,2.92
2018-03-31T02:32:13.194Z,2.95
2018-03-31T02:33:13.088Z,2.86
2018-03-31T02:34:12.990Z,2.82
2018-03-31T02:35:12.886Z,2.86
2018-03-31T02:36:12.769Z,2.90
2018-03-31T02:37:12.664Z,2.93
2018-03-31T02:38:12.561Z,2.95
2018-03-31T02:39:12.458Z,2.98
2018-03-31T02:40:12.357Z,2.98
2018-03-31T02:41:12.250Z,2.95
2018-03-31T02:42:12.134Z,2.87
2018-03-31T02:43:12.031Z,2.90
2018-03-31T02:44:11.927Z,2.92
2018-03-31T02:45:11.824Z,2.90
2018-03-31T02:46:11.709Z,2.92
2018-03-31T02:47:11.606Z,2.90
2018-03-31T02:48:11.504Z,2.90
2018-03-31T02:49:11.400Z,2.90
2018-03-31T02:50:11.285Z,2.83
2018-03-31T02:51:11.185Z,2.82
2018-03-31T02:52:11.076Z,2.85
2018-03-31T02:53:10.973Z,2.82
2018-03-31T02:54:10.870Z,2.79
2018-03-31T02:55:10.754Z,2.80
2018-03-31T02:56:10.654Z,2.83
2018-03-31T02:57:10.548Z,2.80
2018-03-31T02:58:10.444Z,2.83
2018-03-31T02:59:10.346Z,2.71
2018-03-31T03:00:10.224Z,2.71
2018-03-31T03:01:10.124Z,2.77
2018-03-31T03:02:10.018Z,2.85
2018-03-31T03:03:09.916Z,2.71
2018-03-31T03:04:09.799Z,2.69
2018-03-31T03:05:09.699Z,2.71
2018-03-31T03:06:09.596Z,2.77
2018-03-31T03:07:09.493Z,2.77
2018-03-31T03:08:09.385Z,2.82
2018-03-31T03:09:09.269Z,2.77
2018-03-31T03:10:09.166Z,2.72
2018-03-31T03:11:09.063Z,2.75
2018-03-31T03:12:08.959Z,2.80
2018-03-31T03:13:08.844Z,2.82
2018-03-31T03:14:08.741Z,2.75
2018-03-31T03:15:08.638Z,2.60
2018-03-31T03:16:08.534Z,2.72
2018-03-31T03:17:08.420Z,2.74
2018-03-31T03:18:08.316Z,2.69
2018-03-31T03:19:08.211Z,2.68
2018-03-31T03:20:08.108Z,2.69
2018-03-31T03:21:08.005Z,2.68
2018-03-31T03:22:07.889Z,2.61
2018-03-31T03:23:07.789Z,2.61
2018-03-31T03:24:07.684Z,2.69
2018-03-31T03:25:07.580Z,2.65
2018-03-31T03:26:07.464Z,2.60
2018-03-31T03:27:07.359Z,2.77
2018-03-31T03:28:07.256Z,2.77
2018-03-31T03:29:07.152Z,2.65
2018-03-31T03:30:07.040Z,2.71
2018-03-31T03:31:06.938Z,2.57
2018-03-31T03:32:06.832Z,2.69
2018-03-31T03:33:06.728Z,2.62
2018-03-31T03:34:06.625Z,2.75
2018-03-31T03:35:06.508Z,2.71
2018-03-31T03:36:06.405Z,2.82
2018-03-31T03:37:06.306Z,2.77
2018-03-31T03:38:06.198Z,2.69
2018-03-31T03:39:06.094Z,2.82
2018-03-31T03:40:05.980Z,2.82
2018-03-31T03:41:05.878Z,2.83
2018-03-31T03:42:06.074Z,2.72
2018-03-31T03:43:05.658Z,2.86
2018-03-31T03:44:05.553Z,2.85
2018-03-31T03:45:05.450Z,2.82
2018-03-31T03:46:05.347Z,2.83
2018-03-31T03:47:05.243Z,2.86
2018-03-31T03:48:05.128Z,2.82
2018-03-31T03:49:05.025Z,2.79
2018-03-31T03:50:04.922Z,2.82
2018-03-31T03:51:04.818Z,2.85
2018-03-31T03:52:04.703Z,2.85
2018-03-31T03:53:04.599Z,2.79
2018-03-31T03:54:04.495Z,2.82
2018-03-31T03:55:04.391Z,2.86
2018-03-31T03:56:04.289Z,2.82
2018-03-31T03:57:04.186Z,2.89
2018-03-31T03:58:04.074Z,2.83
2018-03-31T03:59:03.970Z,2.90
2018-03-31T04:00:03.863Z,2.98
2018-03-31T04:01:03.760Z,2.93
2018-03-31T04:02:03.646Z,2.95
2018-03-31T04:03:03.540Z,2.93
2018-03-31T04:04:03.437Z,2.97
2018-03-31T04:05:03.333Z,2.95
2018-03-31T04:06:03.218Z,2.97
2018-03-31T04:07:03.115Z,2.95
2018-03-31T04:08:03.014Z,2.95
2018-03-31T04:09:02.909Z,2.89
2018-03-31T04:10:02.805Z,2.97
2018-03-31T04:11:02.710Z,2.93
2018-03-31T04:12:02.587Z,2.89
2018-03-31T04:13:02.482Z,2.92
2018-03-31T04:14:02.379Z,2.92
2018-03-31T04:15:02.289Z,2.92
2018-03-31T04:16:02.160Z,2.98
2018-03-31T04:17:02.058Z,2.97
2018-03-31T04:18:01.954Z,2.97
2018-03-31T04:19:01.851Z,3.00
2018-03-31T04:20:01.736Z,2.92
2018-03-31T04:21:01.631Z,2.97
2018-03-31T04:22:01.528Z,2.95
2018-03-31T04:23:01.424Z,3.01
2018-03-31T04:24:01.320Z,3.07
2018-03-31T04:25:01.219Z,3.07
2018-03-31T04:26:01.102Z,3.08
2018-03-31T04:27:01.000Z,3.04
2018-03-31T04:28:00.896Z,2.98
2018-03-31T04:29:00.793Z,2.89
2018-03-31T04:30:00.677Z,2.97
2018-03-31T04:31:00.585Z,2.98
2018-03-31T04:32:00.769Z,3.05
2018-03-31T04:33:00.366Z,3.04
2018-03-31T04:34:00.262Z,3.05
2018-03-31T04:35:00.148Z,2.97
2018-03-31T04:36:00.045Z,3.01
2018-03-31T04:36:59.943Z,3.10
2018-03-31T04:37:59.840Z,3.01
2018-03-31T04:38:59.734Z,3.04
2018-03-31T04:39:59.619Z,2.98
2018-03-31T04:40:59.514Z,3.05
2018-03-31T04:41:59.411Z,3.05
2018-03-31T04:42:59.309Z,3.10
2018-03-31T04:43:59.218Z,3.04
2018-03-31T04:44:59.089Z,3.05
2018-03-31T04:45:58.987Z,3.01
2018-03-31T04:46:58.882Z,3.07
2018-03-31T04:47:58.779Z,3.03
2018-03-31T04:48:58.676Z,3.05
2018-03-31T04:49:58.561Z,3.08
2018-03-31T04:50:58.456Z,3.03
2018-03-31T04:51:58.353Z,3.07
2018-03-31T04:52:58.249Z,3.11
2018-03-31T04:53:58.146Z,3.07
2018-03-31T04:54:58.031Z,3.05
2018-03-31T04:55:57.928Z,3.08
2018-03-31T04:56:57.825Z,3.03
2018-03-31T04:57:57.722Z,3.10
2018-03-31T04:58:57.618Z,3.08
2018-03-31T04:59:57.502Z,3.11
2018-03-31T05:00:57.400Z,3.05
2018-03-31T05:01:57.294Z,3.08
2018-03-31T05:02:57.190Z,3.11
2018-03-31T05:03:57.087Z,3.11
2018-03-31T05:04:56.988Z,3.08
2018-03-31T05:05:56.869Z,3.11
2018-03-31T05:06:56.766Z,3.08
2018-03-31T05:07:56.662Z,3.10
2018-03-31T05:08:56.559Z,3.07
2018-03-31T05:09:56.446Z,3.07
2018-03-31T05:10:56.341Z,3.08
2018-03-31T05:11:56.239Z,3.14
2018-03-31T05:12:56.133Z,3.14
2018-03-31T05:13:56.030Z,3.07
2018-03-31T05:14:55.926Z,3.10
2018-03-31T05:15:55.811Z,3.11
2018-03-31T05:16:55.714Z,3.16
2018-03-31T05:17:55.635Z,3.21
2018-03-31T05:18:55.501Z,3.21
2018-03-31T05:19:55.399Z,3.19
2018-03-31T05:20:55.282Z,3.13
2018-03-31T05:21:55.181Z,3.22
2018-03-31T05:22:55.075Z,3.25
2018-03-31T05:23:54.971Z,3.25
2018-03-31T05:24:54.868Z,3.25
2018-03-31T05:25:54.752Z,3.23
2018-03-31T05:26:54.656Z,3.22
2018-03-31T05:27:54.551Z,3.32
2018-03-31T05:28:54.443Z,3.21
2018-03-31T05:29:54.340Z,3.22
2018-03-31T05:30:54.224Z,3.26
2018-03-31T05:31:54.129Z,3.31
2018-03-31T05:32:54.017Z,3.42
2018-03-31T05:33:53.913Z,3.37
2018-03-31T05:34:53.810Z,3.37
2018-03-31T05:35:53.707Z,3.45
2018-03-31T05:36:53.591Z,3.41
2018-03-31T05:37:53.488Z,3.47
2018-03-31T05:38:53.386Z,3.28
2018-03-31T05:39:53.286Z,3.34
2018-03-31T05:40:53.179Z,3.36
2018-03-31T05:41:53.061Z,3.31
2018-03-31T05:42:52.958Z,3.36
2018-03-31T05:43:52.856Z,3.34
2018-03-31T05:44:52.752Z,3.42
2018-03-31T05:45:52.653Z,3.37
2018-03-31T05:46:52.547Z,3.44
2018-03-31T05:47:52.430Z,3.26
2018-03-31T05:48:52.328Z,3.37
2018-03-31T05:49:52.228Z,3.41
2018-03-31T05:50:52.119Z,3.23
2018-03-31T05:51:52.017Z,3.34
2018-03-31T05:52:51.905Z,3.32
2018-03-31T05:53:51.798Z,3.32
2018-03-31T05:54:51.694Z,3.48
2018-03-31T05:55:51.592Z,3.37
2018-03-31T05:56:51.487Z,3.48
2018-03-31T05:57:51.384Z,3.45
2018-03-31T05:58:51.273Z,3.40
2018-03-31T05:59:51.165Z,3.50
2018-03-31T06:00:51.062Z,3.44
2018-03-31T06:01:50.959Z,3.51
2018-03-31T06:02:50.855Z,3.41
2018-03-31T06:03:50.753Z,3.44
2018-03-31T06:04:50.650Z,3.42
2018-03-31T06:05:50.537Z,3.32
2018-03-31T06:06:50.428Z,3.37
2018-03-31T06:07:50.325Z,3.41
2018-03-31T06:08:50.227Z,3.44
2018-03-31T06:09:50.119Z,3.41
2018-03-31T06:10:50.017Z,3.47
2018-03-31T06:11:49.908Z,3.40
2018-03-31T06:12:49.797Z,3.37
2018-03-31T06:13:49.694Z,3.47
2018-03-31T06:14:49.591Z,3.48
2018-03-31T06:15:49.487Z,3.44
2018-03-31T06:16:49.383Z,3.53
2018-03-31T06:17:49.268Z,3.58
2018-03-31T06:18:49.169Z,3.56
2018-03-31T06:19:49.063Z,3.59
2018-03-31T06:20:48.957Z,3.56
2018-03-31T06:21:49.153Z,3.56
2018-03-31T06:22:48.750Z,3.53
2018-03-31T06:23:48.637Z,3.53
2018-03-31T06:24:48.532Z,3.48
2018-03-31T06:25:48.429Z,3.40
2018-03-31T06:26:48.326Z,3.45
2018-03-31T06:27:48.223Z,3.47
2018-03-31T06:28:48.122Z,3.42
2018-03-31T06:29:48.003Z,3.50
2018-03-31T06:30:47.899Z,3.45
2018-03-31T06:31:47.802Z,3.45
2018-03-31T06:32:47.692Z,3.41
2018-03-31T06:33:47.589Z,3.44
2018-03-31T06:34:47.486Z,3.41
2018-03-31T06:35:47.384Z,3.50
2018-03-31T06:36:47.268Z,3.40
2018-03-31T06:37:47.164Z,3.40
2018-03-31T06:38:47.064Z,3.45
2018-03-31T06:39:46.962Z,3.34
2018-03-31T06:40:46.855Z,3.42
2018-03-31T06:41:46.739Z,3.47
2018-03-31T06:42:46.634Z,3.47
2018-03-31T06:43:46.560Z,3.41
2018-03-31T06:44:46.428Z,3.37
2018-03-31T06:45:46.325Z,3.37
2018-03-31T06:46:46.280Z,3.44
2018-03-31T06:47:46.106Z,3.42
2018-03-31T06:48:46.003Z,3.37
2018-03-31T06:49:45.899Z,3.32
2018-03-31T06:50:45.796Z,3.32
2018-03-31T06:51:45.692Z,3.34
2018-03-31T06:52:45.592Z,3.47
2018-03-31T06:53:45.474Z,3.34
2018-03-31T06:54:45.392Z,3.23
2018-03-31T06:55:45.261Z,3.23
2018-03-31T06:56:45.164Z,3.19
2018-03-31T06:57:45.060Z,3.21
2018-03-31T06:58:44.945Z,3.08
2018-03-31T06:59:44.845Z,3.05
2018-03-31T07:00:44.737Z,3.10
2018-03-31T07:01:44.634Z,3.10
2018-03-31T07:02:44.530Z,3.08
2018-03-31T07:03:44.416Z,3.05
2018-03-31T07:04:44.311Z,3.08
2018-03-31T07:05:44.207Z,3.13
2018-03-31T07:06:44.112Z,3.14
2018-03-31T07:07:44.001Z,3.11
2018-03-31T07:08:43.887Z,3.10
2018-03-31T07:09:43.783Z,3.21
2018-03-31T07:10:43.680Z,3.16
2018-03-31T07:11:43.577Z,3.16
2018-03-31T07:12:43.473Z,3.14
2018-03-31T07:13:43.357Z,3.19
2018-03-31T07:14:43.253Z,3.13
2018-03-31T07:15:43.150Z,3.13
2018-03-31T07:16:43.047Z,3.11
2018-03-31T07:17:42.933Z,3.18
2018-03-31T07:18:42.839Z,3.11
2018-03-31T07:19:42.725Z,3.18
2018-03-31T07:20:42.622Z,3.13
2018-03-31T07:21:42.519Z,3.14
2018-03-31T07:22:42.402Z,3.21
2018-03-31T07:23:42.366Z,3.21
2018-03-31T07:24:42.195Z,3.23
2018-03-31T07:25:42.093Z,3.29
2018-03-31T07:26:41.988Z,3.31
2018-03-31T07:27:41.873Z,3.37
2018-03-31T07:28:41.770Z,3.34
2018-03-31T07:29:41.666Z,3.26
2018-03-31T07:30:41.563Z,3.31
2018-03-31T07:31:41.465Z,3.34
2018-03-31T07:32:41.343Z,3.28
2018-03-31T07:33:41.240Z,3.32
2018-03-31T07:34:41.136Z,3.32
2018-03-31T07:35:41.033Z,3.29
2018-03-31T07:36:40.930Z,3.40
2018-03-31T07:37:40.815Z,3.42
2018-03-31T07:38:40.713Z,3.44
2018-03-31T07:39:40.607Z,3.44
2018-03-31T07:40:40.506Z,3.31
2018-03-31T07:41:40.388Z,3.37
2018-03-31T07:42:40.285Z,3.32
2018-03-31T07:43:40.186Z,3.44
2018-03-31T07:44:40.079Z,3.40
2018-03-31T07:45:39.964Z,3.41
2018-03-31T07:46:39.860Z,3.42
2018-03-31T07:47:39.762Z,3.40
2018-03-31T07:48:39.653Z,3.37
2018-03-31T07:49:39.555Z,3.23
2018-03-31T07:50:39.434Z,3.37
2018-03-31T07:51:39.329Z,3.37
2018-03-31T07:52:39.229Z,3.47
2018-03-31T07:53:39.123Z,3.47
2018-03-31T07:54:39.025Z,3.47
2018-03-31T07:55:38.905Z,3.41
2018-03-31T07:56:39.103Z,3.37
2018-03-31T07:57:38.699Z,3.48
2018-03-31T07:58:38.595Z,3.37
2018-03-31T07:59:38.480Z,3.41
2018-03-31T08:00:38.376Z,3.45
2018-03-31T08:01:38.273Z,3.47
2018-03-31T08:02:38.169Z,3.51
2018-03-31T08:03:38.065Z,3.50
2018-03-31T08:04:37.952Z,3.47
2018-03-31T08:05:37.851Z,3.45
2018-03-31T08:06:37.746Z,3.53
2018-03-31T08:07:37.641Z,3.51
2018-03-31T08:08:37.537Z,3.53
2018-03-31T08:09:37.420Z,3.53
2018-03-31T08:10:37.319Z,3.55
2018-03-31T08:11:37.213Z,3.56
2018-03-31T08:12:37.110Z,3.56
2018-03-31T08:13:36.998Z,3.65
2018-03-31T08:14:36.893Z,3.66
2018-03-31T08:15:36.789Z,3.74
2018-03-31T08:16:36.685Z,3.78
2018-03-31T08:17:36.584Z,3.77
2018-03-31T08:18:36.469Z,3.69
2018-03-31T08:19:36.362Z,3.69
2018-03-31T08:20:36.259Z,3.80
2018-03-31T08:21:36.155Z,3.78
2018-03-31T08:22:36.054Z,3.87
2018-03-31T08:23:35.939Z,3.83
2018-03-31T08:24:35.838Z,3.76
2018-03-31T08:25:35.730Z,3.84
2018-03-31T08:26:35.628Z,3.83
2018-03-31T08:27:35.534Z,3.94
2018-03-31T08:28:35.408Z,3.87
2018-03-31T08:29:35.304Z,3.86
2018-03-31T08:30:35.242Z,3.95
2018-03-31T08:31:35.098Z,4.08
2018-03-31T08:32:35.007Z,4.04
2018-03-31T08:33:34.905Z,4.13
2018-03-31T08:34:34.776Z,4.06
2018-03-31T08:35:34.676Z,4.19
2018-03-31T08:36:34.570Z,4.16
2018-03-31T08:37:34.465Z,4.12
2018-03-31T08:38:34.351Z,4.16
2018-03-31T08:39:34.246Z,4.20
2018-03-31T08:40:34.143Z,4.31
2018-03-31T08:41:34.039Z,4.44
2018-03-31T08:42:33.936Z,4.40
2018-03-31T08:43:33.833Z,4.34
2018-03-31T08:44:33.718Z,4.38
2018-03-31T08:45:33.615Z,4.40
2018-03-31T08:46:33.511Z,4.24
2018-03-31T08:47:33.408Z,4.35
2018-03-31T08:48:33.304Z,4.26
2018-03-31T08:49:33.201Z,4.26
2018-03-31T08:50:33.097Z,4.16
2018-03-31T08:51:32.982Z,4.16
2018-03-31T08:52:32.878Z,4.17
2018-03-31T08:53:32.776Z,4.16
2018-03-31T08:54:32.728Z,4.14
2018-03-31T08:55:32.568Z,4.06
2018-03-31T08:56:32.764Z,4.12
2018-03-31T08:57:32.350Z,4.16
2018-03-31T08:58:32.246Z,4.23
2018-03-31T08:59:32.143Z,4.24
2018-03-31T09:00:32.039Z,4.13
2018-03-31T09:01:31.936Z,4.17
2018-03-31T09:02:31.833Z,4.12
2018-03-31T09:03:31.717Z,4.12
2018-03-31T09:04:31.613Z,4.13
2018-03-31T09:05:31.510Z,4.23
2018-03-31T09:06:31.406Z,4.26
2018-03-31T09:07:31.303Z,4.14
2018-03-31T09:08:31.200Z,4.17
2018-03-31T09:09:31.096Z,4.31
2018-03-31T09:10:30.982Z,4.23
2018-03-31T09:11:30.878Z,4.20
2018-03-31T09:12:30.775Z,4.17
2018-03-31T09:13:30.672Z,4.17
2018-03-31T09:14:30.568Z,4.10
2018-03-31T09:15:30.465Z,4.12
2018-03-31T09:16:30.352Z,4.20
2018-03-31T09:17:30.258Z,4.19
2018-03-31T09:18:30.141Z,4.26
2018-03-31T09:19:30.038Z,4.24
2018-03-31T09:20:29.935Z,4.40
2018-03-31T09:21:29.831Z,4.38
2018-03-31T09:22:29.718Z,4.44
2018-03-31T09:23:29.617Z,4.49
2018-03-31T09:24:29.510Z,4.50
2018-03-31T09:25:29.407Z,4.62
2018-03-31T09:26:29.303Z,4.66
2018-03-31T09:27:29.200Z,4.74
2018-03-31T09:28:29.085Z,4.86
2018-03-31T09:29:28.981Z,4.77
2018-03-31T09:30:28.877Z,4.78
2018-03-31T09:31:28.787Z,4.71
2018-03-31T09:32:28.672Z,4.84
2018-03-31T09:33:28.566Z,4.78
2018-03-31T09:34:28.463Z,4.89
2018-03-31T09:35:28.360Z,4.89
2018-03-31T09:36:28.246Z,5.02
2018-03-31T09:37:28.143Z,5.00
2018-03-31T09:38:28.039Z,5.02
2018-03-31T09:39:27.935Z,5.05
2018-03-31T09:40:27.832Z,4.99
2018-03-31T09:41:27.979Z,5.02
2018-03-31T09:42:27.625Z,4.97
2018-03-31T09:43:27.522Z,4.99
2018-03-31T09:44:27.419Z,5.02
2018-03-31T09:45:27.302Z,4.87
2018-03-31T09:46:27.198Z,4.99
2018-03-31T09:47:27.095Z,4.90
2018-03-31T09:48:26.992Z,5.05
2018-03-31T09:49:26.892Z,5.05
2018-03-31T09:50:26.785Z,5.04
2018-03-31T09:51:26.681Z,5.04
2018-03-31T09:52:26.578Z,4.96
2018-03-31T09:53:26.475Z,5.10
2018-03-31T09:54:26.372Z,5.07
2018-03-31T09:55:26.268Z,5.18
2018-03-31T09:56:26.166Z,5.47
2018-03-31T09:57:26.050Z,5.46
2018-03-31T09:58:25.948Z,5.57
2018-03-31T09:59:25.844Z,5.62
2018-03-31T10:00:25.746Z,5.64
2018-03-31T10:01:25.886Z,5.59
2018-03-31T10:02:25.534Z,5.44
2018-03-31T10:03:25.430Z,5.29
2018-03-31T10:04:25.327Z,5.26
2018-03-31T10:05:25.227Z,5.30
2018-03-31T10:06:25.120Z,5.26
2018-03-31T10:07:25.017Z,5.28
2018-03-31T10:08:24.915Z,5.14
2018-03-31T10:09:24.815Z,5.08
2018-03-31T10:10:24.708Z,4.97
2018-03-31T10:11:24.604Z,4.92
2018-03-31T10:12:24.501Z,4.99
2018-03-31T10:13:24.397Z,4.89
2018-03-31T10:14:24.299Z,4.80
2018-03-31T10:15:24.190Z,4.70
2018-03-31T10:16:24.089Z,4.80
2018-03-31T10:17:23.984Z,4.71
2018-03-31T10:18:23.881Z,4.74
2018-03-31T10:19:23.766Z,4.80
2018-03-31T10:20:23.661Z,4.89
2018-03-31T10:21:23.807Z,4.94
2018-03-31T10:22:23.454Z,4.90
2018-03-31T10:23:23.353Z,4.93
2018-03-31T10:24:23.247Z,4.89
2018-03-31T10:25:23.144Z,4.94
2018-03-31T10:26:23.041Z,4.86
2018-03-31T10:27:22.938Z,4.90
2018-03-31T10:28:22.835Z,4.84
2018-03-31T10:29:22.731Z,4.84
2018-03-31T10:30:22.628Z,4.82
2018-03-31T10:31:22.525Z,4.80
2018-03-31T10:32:22.422Z,4.77
2018-03-31T10:33:22.306Z,4.73
2018-03-31T10:34:22.203Z,4.66
2018-03-31T10:35:22.137Z,4.75
2018-03-31T10:36:22.013Z,4.87
2018-03-31T10:37:21.900Z,4.94
2018-03-31T10:38:21.789Z,4.97
2018-03-31T10:39:21.686Z,5.05
2018-03-31T10:40:21.589Z,5.07
2018-03-31T10:41:21.481Z,5.05
2018-03-31T10:42:21.376Z,5.14
2018-03-31T10:43:21.262Z,5.28
2018-03-31T10:44:21.171Z,5.23
2018-03-31T10:45:21.053Z,5.32
2018-03-31T10:46:20.949Z,5.36
2018-03-31T10:47:20.846Z,5.39
2018-03-31T10:48:20.743Z,5.50
2018-03-31T10:49:20.641Z,5.36
2018-03-31T10:50:20.536Z,5.23
2018-03-31T10:51:20.432Z,5.23
2018-03-31T10:52:20.330Z,5.20
2018-03-31T10:53:20.226Z,5.15
2018-03-31T10:54:20.123Z,5.18
2018-03-31T10:55:20.020Z,5.15
2018-03-31T10:56:19.916Z,5.20
2018-03-31T10:57:19.812Z,5.20
2018-03-31T10:58:19.709Z,5.11
2018-03-31T10:59:19.606Z,5.10
2018-03-31T11:00:19.514Z,5.20
2018-03-31T11:01:19.388Z,5.18
2018-03-31T11:02:19.285Z,5.23
2018-03-31T11:03:19.181Z,5.14
2018-03-31T11:04:19.080Z,5.12
2018-03-31T11:05:18.974Z,5.20
2018-03-31T11:06:18.871Z,5.20
2018-03-31T11:07:18.767Z,5.23
2018-03-31T11:08:18.665Z,5.29
2018-03-31T11:09:18.565Z,5.28
2018-03-31T11:10:18.458Z,5.32
2018-03-31T11:11:18.355Z,5.35
2018-03-31T11:12:18.256Z,5.26
2018-03-31T11:13:18.149Z,5.39
2018-03-31T11:14:18.045Z,5.46
2018-03-31T11:15:17.942Z,5.48
2018-03-31T11:16:17.838Z,5.53
2018-03-31T11:17:17.734Z,5.48
2018-03-31T11:18:17.631Z,5.62
2018-03-31T11:19:17.518Z,5.41
2018-03-31T11:20:17.414Z,5.46
2018-03-31T11:21:17.310Z,5.46
2018-03-31T11:22:17.205Z,5.35
2018-03-31T11:23:17.102Z,5.44
2018-03-31T11:24:17.000Z,5.39
2018-03-31T11:25:16.895Z,5.38
2018-03-31T11:26:16.794Z,5.46
2018-03-31T11:27:16.689Z,5.53
2018-03-31T11:28:16.585Z,5.51
2018-03-31T11:29:16.481Z,5.57
2018-03-31T11:30:16.380Z,5.50
2018-03-31T11:31:16.282Z,5.47
2018-03-31T11:32:16.185Z,5.59
2018-03-31T11:33:16.069Z,5.62
2018-03-31T11:34:15.965Z,5.65
2018-03-31T11:35:15.862Z,5.66
2018-03-31T11:36:15.758Z,5.61
2018-03-31T11:37:15.655Z,5.61
2018-03-31T11:38:15.552Z,5.72
2018-03-31T11:39:15.449Z,5.69
2018-03-31T11:40:15.346Z,5.65
2018-03-31T11:41:15.243Z,5.76
2018-03-31T11:42:15.138Z,5.72
2018-03-31T11:43:15.036Z,5.68
2018-03-31T11:44:14.945Z,5.73
2018-03-31T11:45:14.829Z,5.64
2018-03-31T11:46:14.725Z,5.72
2018-03-31T11:47:14.622Z,5.71
2018-03-31T11:48:14.519Z,5.79
2018-03-31T11:49:14.404Z,5.79
2018-03-31T11:50:14.300Z,5.83
2018-03-31T11:51:14.203Z,5.84
2018-03-31T11:52:14.103Z,5.86
2018-03-31T11:53:13.991Z,5.90
2018-03-31T11:54:13.887Z,5.91
2018-03-31T11:55:13.788Z,5.90
2018-03-31T11:56:13.681Z,5.91
2018-03-31T11:57:13.580Z,5.94
2018-03-31T11:58:13.474Z,5.91
2018-03-31T11:59:13.371Z,5.87
2018-03-31T12:00:13.270Z,5.97
2018-03-31T12:01:13.164Z,5.91
2018-03-31T12:02:13.061Z,5.99
2018-03-31T12:03:12.958Z,5.97
2018-03-31T12:04:12.855Z,5.98
2018-03-31T12:05:12.751Z,6.01
2018-03-31T12:06:12.648Z,5.91
2018-03-31T12:07:12.544Z,5.97
2018-03-31T12:08:12.440Z,5.97
2018-03-31T12:09:12.338Z,6.12
2018-03-31T12:10:12.235Z,6.14
2018-03-31T12:11:12.131Z,6.16
2018-03-31T12:12:12.027Z,6.26
2018-03-31T12:13:11.925Z,6.30
2018-03-31T12:14:11.821Z,6.27
2018-03-31T12:15:11.717Z,6.22
2018-03-31T12:16:11.619Z,6.24
2018-03-31T12:17:11.511Z,6.28
2018-03-31T12:18:11.408Z,6.28
2018-03-31T12:19:11.304Z,6.38
2018-03-31T12:20:11.202Z,6.41
2018-03-31T12:21:11.099Z,6.56
2018-03-31T12:22:10.995Z,6.66
2018-03-31T12:23:10.891Z,6.56
2018-03-31T12:24:10.793Z,6.52
2018-03-31T12:25:10.684Z,6.64
2018-03-31T12:26:10.582Z,6.63
2018-03-31T12:27:10.524Z,6.66
2018-03-31T12:28:10.375Z,6.51
2018-03-31T12:29:10.272Z,6.56
2018-03-31T12:30:10.167Z,6.66
2018-03-31T12:31:10.066Z,6.81
2018-03-31T12:32:09.961Z,6.87
2018-03-31T12:33:09.858Z,6.88
2018-03-31T12:34:09.755Z,6.79
2018-03-31T12:35:09.651Z,6.82
2018-03-31T12:36:09.552Z,6.85
2018-03-31T12:37:09.448Z,6.85
2018-03-31T12:38:09.355Z,6.92
2018-03-31T12:39:09.250Z,6.85
2018-03-31T12:40:09.148Z,6.79
2018-03-31T12:41:09.043Z,6.67
2018-03-31T12:42:08.939Z,6.62
2018-03-31T12:43:08.836Z,6.64
2018-03-31T12:44:08.733Z,6.64
2018-03-31T12:45:08.630Z,6.72
2018-03-31T12:46:08.527Z,6.70
2018-03-31T12:47:08.423Z,6.84
2018-03-31T12:48:08.319Z,6.85
2018-03-31T12:49:08.217Z,6.89
2018-03-31T12:50:08.128Z,6.85
2018-03-31T12:51:08.012Z,6.89
2018-03-31T12:52:07.919Z,6.88
2018-03-31T12:53:07.816Z,6.81
2018-03-31T12:54:07.715Z,6.78
2018-03-31T12:55:07.610Z,6.82
2018-03-31T12:56:07.506Z,6.82
2018-03-31T12:57:07.404Z,6.96
2018-03-31T12:58:07.302Z,7.03
2018-03-31T12:59:07.196Z,6.99
2018-03-31T13:00:07.093Z,6.97
2018-03-31T13:01:06.993Z,7.00
2018-03-31T13:02:06.887Z,6.93
2018-03-31T13:03:06.783Z,6.96
2018-03-31T13:04:06.680Z,6.92
2018-03-31T13:05:06.588Z,6.88
2018-03-31T13:06:06.489Z,6.93
2018-03-31T13:07:06.384Z,6.97
2018-03-31T13:08:06.279Z,6.95
2018-03-31T13:09:06.177Z,6.87
2018-03-31T13:10:06.072Z,6.82
2018-03-31T13:11:05.971Z,6.82
2018-03-31T13:12:05.878Z,6.79
2018-03-31T13:13:05.763Z,6.82
2018-03-31T13:14:05.658Z,6.87
2018-03-31T13:15:05.556Z,6.82
2018-03-31T13:16:05.455Z,6.82
2018-03-31T13:17:05.362Z,6.79